BAW903 EKBI-EGLL
Flight info
| Callsign | BAW903 |
|---|---|
| Flight time | N/A |
| Altitude | 38000 |
| Route | MIKRO DCT IPSUB P174 MOXCI DCT BEDUM DCT SPY DCT ABNED L980 LOGAN |
| Aircraft | A319/M-SDE3FGHIRWY/LB1 |
Departure
| Time | 2026-05-01 08:28 |
|---|---|
| Airport | Billund Airport (EKBI) |
Arrival
| Time | N/A |
|---|---|
| Airport | London Heathrow Airport (EGLL) |
| Time | Latitude | Longitude | Altitude | Speed | Heading |
|---|---|---|---|---|---|
| 2026-05-01 08:05 | 55.74532 | 9.14684 | 220 ft | 0 kts | 357° |
| 2026-05-01 08:06 | 55.74530 | 9.14684 | 220 ft | 0 kts | 357° |
| 2026-05-01 08:21 | 55.74523 | 9.14684 | 221 ft | 4 kts | 357° |
| 2026-05-01 08:21 | 55.74496 | 9.14687 | 216 ft | 4 kts | 357° |
| 2026-05-01 08:21 | 55.74475 | 9.14689 | 216 ft | 4 kts | 359° |
| 2026-05-01 08:21 | 55.74451 | 9.14681 | 217 ft | 4 kts | 49° |
| 2026-05-01 08:22 | 55.74445 | 9.14644 | 223 ft | 4 kts | 87° |
| 2026-05-01 08:22 | 55.74444 | 9.14631 | 218 ft | 0 kts | 86° |
| 2026-05-01 08:23 | 55.74445 | 9.14670 | 216 ft | 8 kts | 87° |
| 2026-05-01 08:24 | 55.74451 | 9.14820 | 216 ft | 17 kts | 86° |
| 2026-05-01 08:24 | 55.74388 | 9.14981 | 216 ft | 20 kts | 175° |
| 2026-05-01 08:24 | 55.74232 | 9.14998 | 222 ft | 25 kts | 172° |
| 2026-05-01 08:24 | 55.74201 | 9.15181 | 216 ft | 14 kts | 93° |
| 2026-05-01 08:25 | 55.74206 | 9.15385 | 216 ft | 19 kts | 86° |
| 2026-05-01 08:25 | 55.74213 | 9.15559 | 216 ft | 24 kts | 86° |
| 2026-05-01 08:25 | 55.74222 | 9.15890 | 224 ft | 30 kts | 88° |
| 2026-05-01 08:25 | 55.74235 | 9.16305 | 216 ft | 37 kts | 86° |
| 2026-05-01 08:26 | 55.74254 | 9.16996 | 216 ft | 48 kts | 88° |
| 2026-05-01 08:26 | 55.74273 | 9.17626 | 216 ft | 54 kts | 86° |
| 2026-05-01 08:26 | 55.74284 | 9.17990 | 216 ft | 31 kts | 89° |
| 2026-05-01 08:26 | 55.74125 | 9.18018 | 216 ft | 24 kts | 261° |
| 2026-05-01 08:27 | 55.74114 | 9.17779 | 216 ft | 42 kts | 266° |
| 2026-05-01 08:27 | 55.74089 | 9.16923 | 216 ft | 98 kts | 267° |
| 2026-05-01 08:27 | 55.74034 | 9.15390 | 224 ft | 150 kts | 266° |
| 2026-05-01 08:27 | 55.73981 | 9.13474 | 721 ft | 156 kts | 263° |
| 2026-05-01 08:28 | 55.74216 | 9.11587 | 1379 ft | 165 kts | 301° |
| 2026-05-01 08:28 | 55.74967 | 9.09932 | 1889 ft | 182 kts | 305° |
| 2026-05-01 08:28 | 55.75792 | 9.08032 | 2281 ft | 207 kts | 304° |
| 2026-05-01 08:28 | 55.76715 | 9.05864 | 2822 ft | 232 kts | 304° |
| 2026-05-01 08:29 | 55.77739 | 9.03456 | 3432 ft | 254 kts | 304° |
| 2026-05-01 08:29 | 55.78594 | 9.00676 | 4271 ft | 260 kts | 283° |
| 2026-05-01 08:29 | 55.78684 | 8.97475 | 5218 ft | 263 kts | 256° |
| 2026-05-01 08:29 | 55.77939 | 8.94538 | 6160 ft | 263 kts | 230° |
| 2026-05-01 08:30 | 55.76568 | 8.92399 | 7146 ft | 264 kts | 214° |
| 2026-05-01 08:30 | 55.75077 | 8.90473 | 8095 ft | 267 kts | 214° |
| 2026-05-01 08:30 | 55.73560 | 8.88521 | 9031 ft | 271 kts | 214° |
| 2026-05-01 08:30 | 55.72026 | 8.86541 | 9943 ft | 275 kts | 214° |
| 2026-05-01 08:31 | 55.70469 | 8.84531 | 10725 ft | 283 kts | 214° |
| 2026-05-01 08:31 | 55.68806 | 8.82391 | 11022 ft | 307 kts | 214° |
| 2026-05-01 08:31 | 55.67014 | 8.80088 | 11372 ft | 325 kts | 214° |
| 2026-05-01 08:31 | 55.65161 | 8.77705 | 12020 ft | 332 kts | 214° |
| 2026-05-01 08:32 | 55.63283 | 8.75281 | 12338 ft | 334 kts | 214° |
| 2026-05-01 08:32 | 55.61390 | 8.72838 | 12946 ft | 338 kts | 215° |
| 2026-05-01 08:32 | 55.59485 | 8.70377 | 13713 ft | 340 kts | 215° |
| 2026-05-01 08:32 | 55.57563 | 8.67900 | 14421 ft | 344 kts | 215° |
| 2026-05-01 08:33 | 55.55620 | 8.65401 | 15071 ft | 347 kts | 215° |
| 2026-05-01 08:33 | 55.53654 | 8.62881 | 15726 ft | 351 kts | 215° |
| 2026-05-01 08:33 | 55.51665 | 8.60336 | 16366 ft | 355 kts | 215° |
| 2026-05-01 08:33 | 55.49654 | 8.57763 | 16996 ft | 359 kts | 215° |
| 2026-05-01 08:34 | 55.47637 | 8.55183 | 17616 ft | 364 kts | 215° |
| 2026-05-01 08:34 | 55.45579 | 8.52553 | 18217 ft | 369 kts | 215° |
| 2026-05-01 08:34 | 55.43483 | 8.49883 | 18819 ft | 373 kts | 215° |